Time;durP1;ratioP1;P1;durP2;ratioP2;P2;SDS_P1;SDS_P2;PMS_P1;PMS_P2;Temp;Humidity;BMP_temperature;BMP_pressure;BME280_temperature;BME280_humidity;BME280_pressure;Samples;Min_cycle;Max_cycle;Signal;HPM_P1;HPM_P2
2022/04/14 00:01:37;;;;;;;6.93;2.78;;;;;;;9.18;100.00;101239.47;5052698;28;20128;-86
2022/04/14 00:04:04;;;;;;;10.45;2.17;;;;;;;9.24;100.00;101242.81;5052505;28;20457;-86
2022/04/14 00:06:31;;;;;;;12.15;2.67;;;;;;;9.32;100.00;101250.44;5053743;28;20543;-87
2022/04/14 00:08:58;;;;;;;9.02;2.38;;;;;;;8.79;100.00;101229.06;5053614;28;21020;-86
2022/04/14 00:11:25;;;;;;;9.95;2.50;;;;;;;9.07;100.00;101258.88;5053898;28;20049;-86
2022/04/14 00:13:52;;;;;;;14.30;1.90;;;;;;;9.12;100.00;101266.59;5053997;28;20052;-86
2022/04/14 00:16:18;;;;;;;9.55;1.90;;;;;;;9.12;100.00;101256.16;5032881;28;20056;-87
2022/04/14 00:18:45;;;;;;;7.60;1.85;;;;;;;9.31;100.00;101260.06;5035237;28;20595;-87
2022/04/14 00:21:12;;;;;;;7.97;1.92;;;;;;;8.82;100.00;101260.28;5052529;28;20053;-86
2022/04/14 00:23:39;;;;;;;7.68;2.20;;;;;;;8.92;100.00;101267.03;5053304;28;20478;-87
2022/04/14 00:26:06;;;;;;;10.70;2.00;;;;;;;9.06;100.00;101217.09;5052771;28;20509;-87
2022/04/14 00:28:34;;;;;;;7.25;1.98;;;;;;;9.15;100.00;101242.16;5054187;28;20492;-87
2022/04/14 00:31:02;;;;;;;8.80;2.05;;;;;;;9.30;100.00;101254.88;5053585;28;20044;-87
2022/04/14 00:33:28;;;;;;;9.05;2.33;;;;;;;9.22;100.00;101262.84;5052549;28;20096;-86
2022/04/14 00:35:55;;;;;;;9.82;2.20;;;;;;;9.42;100.00;101298.13;5052503;28;20064;-87
2022/04/14 00:38:22;;;;;;;8.32;1.70;;;;;;;9.30;100.00;101265.31;5053981;28;20470;-87
2022/04/14 00:40:49;;;;;;;6.18;1.90;;;;;;;9.50;100.00;101290.97;5053001;28;20054;-88
2022/04/14 00:43:16;;;;;;;8.13;1.80;;;;;;;9.44;100.00;101276.28;5052850;28;20546;-86
2022/04/14 00:45:43;;;;;;;11.93;2.42;;;;;;;9.23;100.00;101288.09;5052919;28;20423;-87
2022/04/14 00:48:10;;;;;;;7.55;2.08;;;;;;;9.30;100.00;101297.53;5052723;28;20053;-86
2022/04/14 00:50:37;;;;;;;8.20;1.73;;;;;;;9.42;100.00;101280.69;5053350;28;20124;-88
2022/04/14 00:53:04;;;;;;;8.93;1.70;;;;;;;9.38;100.00;101279.03;5053556;28;20049;-87
2022/04/14 00:55:31;;;;;;;9.25;2.33;;;;;;;9.44;100.00;101285.91;5052500;28;20049;-86
2022/04/14 00:57:58;;;;;;;9.80;2.90;;;;;;;9.22;100.00;101306.44;5052739;28;20056;-86
2022/04/14 01:00:25;;;;;;;7.18;2.38;;;;;;;9.08;100.00;101293.69;5051783;28;20068;-87
2022/04/14 01:02:54;;;;;;;13.52;2.25;;;;;;;9.43;100.00;101310.31;5053372;28;20049;-87
2022/04/14 01:05:21;;;;;;;10.75;3.55;;;;;;;9.24;100.00;101312.47;5053193;28;20048;-87
2022/04/14 01:07:49;;;;;;;10.32;2.33;;;;;;;9.00;100.00;101298.22;5052180;28;20538;-87
2022/04/14 01:10:16;;;;;;;12.38;2.47;;;;;;;9.16;100.00;101307.44;5052733;28;20067;-87
2022/04/14 01:12:43;;;;;;;6.82;2.25;;;;;;;9.23;100.00;101309.00;5053633;28;20493;-86
2022/04/14 01:15:14;;;;;;;11.30;2.42;;;;;;;9.25;100.00;101307.22;5051763;28;20052;-87
2022/04/14 01:17:42;;;;;;;10.57;3.25;;;;;;;9.52;100.00;101309.22;5052951;28;20051;-87
2022/04/14 01:20:11;;;;;;;7.57;1.60;;;;;;;9.57;100.00;101312.59;5050924;28;20037;-87
2022/04/14 01:22:47;;;;;;;7.55;2.00;;;;;;;9.65;100.00;101310.63;5050921;28;20398;-86
2022/04/14 01:25:14;;;;;;;8.05;2.40;;;;;;;9.72;100.00;101296.53;5052240;28;20056;-86
2022/04/14 01:27:40;;;;;;;9.77;2.85;;;;;;;9.94;100.00;101288.13;5051955;28;20136;-86
2022/04/14 01:30:08;;;;;;;5.22;1.50;;;;;;;10.05;100.00;101294.78;5050549;28;20087;-87
2022/04/14 01:32:35;;;;;;;7.03;2.22;;;;;;;9.79;100.00;101292.88;5051313;28;20053;-86
2022/04/14 01:35:01;;;;;;;8.13;2.03;;;;;;;9.88;100.00;101299.63;5051207;28;20045;-87
2022/04/14 01:37:28;;;;;;;5.60;1.90;;;;;;;10.18;100.00;101299.69;5051441;28;20127;-86
2022/04/14 01:39:55;;;;;;;7.85;2.00;;;;;;;9.95;100.00;101289.84;5050403;28;20049;-87
2022/04/14 01:42:22;;;;;;;8.43;2.13;;;;;;;9.96;100.00;101308.09;5052742;28;20055;-87
2022/04/14 01:44:49;;;;;;;8.25;2.00;;;;;;;9.94;100.00;101315.16;5051232;28;20048;-87
2022/04/14 01:47:15;;;;;;;9.23;2.15;;;;;;;9.85;100.00;101325.84;5052299;28;20056;-86
2022/04/14 01:49:42;;;;;;;5.15;1.60;;;;;;;9.83;100.00;101307.56;5050372;28;20049;-86
2022/04/14 01:52:09;;;;;;;6.55;2.55;;;;;;;9.99;100.00;101343.81;5051378;28;20049;-87
2022/04/14 01:54:36;;;;;;;9.13;2.15;;;;;;;9.78;100.00;101330.38;5051484;28;20061;-87
2022/04/14 01:57:03;;;;;;;12.63;3.75;;;;;;;9.34;100.00;101316.59;5051636;28;20049;-87
2022/04/14 01:59:30;;;;;;;5.28;1.80;;;;;;;9.19;100.00;101296.03;5050533;28;20045;-87
2022/04/14 02:01:57;;;;;;;6.45;1.98;;;;;;;9.47;100.00;101306.72;5052261;28;20055;-87
2022/04/14 02:04:24;;;;;;;5.57;1.65;;;;;;;10.12;100.00;101347.81;5048090;28;20049;-87
2022/04/14 02:06:51;;;;;;;8.73;1.80;;;;;;;9.98;100.00;101355.16;5050957;28;20048;-86
2022/04/14 02:09:17;;;;;;;5.13;1.58;;;;;;;10.10;100.00;101344.38;5049840;28;20051;-86
2022/04/14 02:11:44;;;;;;;6.03;1.30;;;;;;;10.18;100.00;101352.03;5051725;28;20045;-86
2022/04/14 02:14:11;;;;;;;6.85;1.77;;;;;;;10.08;100.00;101348.81;5031292;28;20049;-87
2022/04/14 02:16:38;;;;;;;17.58;2.10;;;;;;;9.71;100.00;101344.50;5032589;28;20399;-87
2022/04/14 02:19:04;;;;;;;5.00;1.80;;;;;;;10.04;100.00;101360.25;5036129;28;20064;-87
2022/04/14 02:21:31;;;;;;;7.70;1.60;;;;;;;9.60;100.00;101331.69;5050580;28;20049;-88
2022/04/14 02:23:58;;;;;;;5.75;1.60;;;;;;;9.81;100.00;101351.22;5050529;28;20048;-87
2022/04/14 02:26:25;;;;;;;7.88;1.70;;;;;;;10.05;100.00;101361.97;5050977;28;20053;-87
2022/04/14 02:28:51;;;;;;;6.72;1.70;;;;;;;9.83;100.00;101341.56;5051075;28;20049;-86
2022/04/14 02:31:18;;;;;;;6.05;1.75;;;;;;;9.80;100.00;101361.72;5050289;28;20135;-86
2022/04/14 02:33:45;;;;;;;11.88;2.38;;;;;;;9.93;100.00;101368.34;5050885;28;20388;-86
2022/04/14 02:36:12;;;;;;;6.97;2.00;;;;;;;9.94;100.00;101361.38;5050789;28;20053;-86
2022/04/14 02:38:38;;;;;;;6.63;2.33;;;;;;;9.85;100.00;101355.47;5050591;28;20417;-89
2022/04/14 02:41:05;;;;;;;6.82;2.13;;;;;;;9.21;100.00;101344.78;5051277;28;20076;-86
2022/04/14 02:43:32;;;;;;;8.45;2.95;;;;;;;9.47;100.00;101377.28;5050410;28;20056;-87
2022/04/14 02:45:59;;;;;;;6.25;1.73;;;;;;;9.53;100.00;101390.25;5051116;28;20055;-86
2022/04/14 02:48:26;;;;;;;8.32;1.83;;;;;;;9.74;100.00;101380.16;5050406;28;20095;-87
2022/04/14 02:50:53;;;;;;;7.10;1.90;;;;;;;9.94;100.00;101372.69;5051303;28;20463;-86
2022/04/14 02:53:20;;;;;;;7.45;1.92;;;;;;;10.06;100.00;101363.69;5050171;28;20056;-87
2022/04/14 02:55:47;;;;;;;8.18;1.88;;;;;;;10.16;100.00;101375.63;5050566;28;20080;-87
2022/04/14 02:58:14;;;;;;;7.90;1.40;;;;;;;10.29;100.00;101383.16;5055056;28;20053;-88
2022/04/14 03:00:40;;;;;;;9.20;2.13;;;;;;;10.07;100.00;101376.75;5053478;28;20067;-87
2022/04/14 03:03:07;;;;;;;15.20;2.20;;;;;;;10.00;100.00;101384.75;5054244;28;20059;-87
2022/04/14 03:05:34;;;;;;;7.50;2.00;;;;;;;9.97;100.00;101380.47;5054487;28;20056;-88
2022/04/14 03:08:01;;;;;;;10.43;1.88;;;;;;;9.92;100.00;101376.25;5054521;28;20045;-87
2022/04/14 03:10:27;;;;;;;7.63;2.10;;;;;;;9.85;100.00;101373.78;5054477;28;20044;-87
2022/04/14 03:12:54;;;;;;;6.50;2.00;;;;;;;10.07;100.00;101399.41;5055163;28;20053;-87
2022/04/14 03:15:21;;;;;;;5.40;1.40;;;;;;;10.14;100.00;101390.50;5053672;28;20079;-88
2022/04/14 03:17:50;;;;;;;8.13;1.90;;;;;;;9.92;100.00;101366.66;5054052;28;20048;-87
2022/04/14 03:20:17;;;;;;;4.25;1.40;;;;;;;10.27;100.00;101406.78;5054233;28;20516;-87
2022/04/14 03:22:43;;;;;;;7.32;1.70;;;;;;;10.65;100.00;101394.44;5053928;28;20402;-87
2022/04/14 03:25:11;;;;;;;5.30;1.75;;;;;;;10.18;100.00;101394.78;5054123;28;20511;-87
2022/04/14 03:27:38;;;;;;;7.78;1.65;;;;;;;10.22;100.00;101399.03;5055525;28;20429;-87
2022/04/14 03:30:06;;;;;;;5.43;1.52;;;;;;;10.27;100.00;101401.53;5053026;28;20049;-88
2022/04/14 03:32:40;;;;;;;7.50;1.92;;;;;;;10.26;100.00;101400.66;5054216;28;20055;-87
2022/04/14 03:35:07;;;;;;;5.82;2.20;;;;;;;10.19;100.00;101406.94;5045252;28;20072;-88
2022/04/14 03:37:34;;;;;;;5.18;1.55;;;;;;;10.14;100.00;101389.66;5053354;28;20048;-86
2022/04/14 03:40:03;;;;;;;5.30;1.50;;;;;;;10.19;100.00;101398.25;5054158;28;20467;-87
2022/04/14 03:42:29;;;;;;;6.47;1.90;;;;;;;10.08;100.00;101401.13;5053384;28;20071;-87
2022/04/14 03:44:57;;;;;;;6.63;2.00;;;;;;;10.13;100.00;101395.78;5055063;28;20055;-88
2022/04/14 03:47:25;;;;;;;9.40;1.80;;;;;;;10.17;100.00;101400.06;5053872;28;20049;-87
2022/04/14 03:49:52;;;;;;;7.20;2.03;;;;;;;10.00;100.00;101384.75;5054539;28;20045;-87
2022/04/14 03:52:18;;;;;;;10.55;1.60;;;;;;;10.03;100.00;101371.59;5054292;28;20044;-83
2022/04/14 03:54:45;;;;;;;5.75;1.55;;;;;;;10.16;100.00;101386.09;5053395;28;20053;-84
2022/04/14 03:57:12;;;;;;;6.95;1.52;;;;;;;9.97;100.00;101383.09;5055224;28;20048;-83
2022/04/14 03:59:39;;;;;;;4.80;1.42;;;;;;;10.19;100.00;101380.78;5052565;28;20505;-83
2022/04/14 04:02:05;;;;;;;3.55;1.40;;;;;;;9.92;100.00;101363.19;5054330;28;20044;-83
2022/04/14 04:04:32;;;;;;;4.45;1.50;;;;;;;9.66;100.00;101357.66;5054149;28;20049;-83
2022/04/14 04:07:00;;;;;;;6.25;1.75;;;;;;;9.65;100.00;101361.19;5052529;28;20049;-83
2022/04/14 04:09:27;;;;;;;11.18;1.90;;;;;;;9.44;100.00;101323.34;5053157;28;20049;-83
2022/04/14 04:11:54;;;;;;;8.45;1.60;;;;;;;9.95;100.00;101371.81;5053137;28;20123;-84
2022/04/14 04:14:21;;;;;;;8.75;1.95;;;;;;;9.74;100.00;101360.13;5053274;28;20053;-84
2022/04/14 04:16:47;;;;;;;8.32;1.98;;;;;;;9.78;100.00;101364.38;5053706;28;20052;-86
2022/04/14 04:19:14;;;;;;;5.72;1.60;;;;;;;9.72;100.00;101364.53;5052801;28;20744;-87
2022/04/14 04:21:41;;;;;;;4.65;1.48;;;;;;;9.74;100.00;101354.88;5054249;28;20802;-86
2022/04/14 04:24:08;;;;;;;6.38;2.17;;;;;;;10.02;100.00;101377.72;5053109;28;20049;-87
2022/04/14 04:26:34;;;;;;;8.55;1.67;;;;;;;10.00;100.00;101385.59;5053142;28;20052;-87
2022/04/14 04:29:01;;;;;;;10.10;3.63;;;;;;;9.83;100.00;101359.03;5052664;28;20051;-86
2022/04/14 04:31:28;;;;;;;3.95;1.60;;;;;;;10.17;100.00;101397.44;5052962;28;20061;-87
2022/04/14 04:33:55;;;;;;;4.40;1.15;;;;;;;10.23;100.00;101398.13;5053111;28;20052;-87
2022/04/14 04:36:21;;;;;;;7.53;2.03;;;;;;;9.97;100.00;101401.41;5052568;28;20045;-87
2022/04/14 04:38:48;;;;;;;5.40;1.83;;;;;;;10.06;100.00;101410.78;5052324;28;20453;-87
2022/04/14 04:41:15;;;;;;;14.43;2.80;;;;;;;9.64;100.00;101400.44;5052953;28;20049;-87
2022/04/14 04:43:42;;;;;;;7.88;2.22;;;;;;;9.53;100.00;101405.91;5054001;28;20063;-87
2022/04/14 04:46:08;;;;;;;6.38;1.75;;;;;;;9.85;100.00;101417.41;5053449;28;20078;-87
2022/04/14 04:48:35;;;;;;;5.53;1.73;;;;;;;9.80;100.00;101414.88;5052067;28;20057;-86
2022/04/14 04:51:02;;;;;;;8.07;2.38;;;;;;;9.81;100.00;101410.50;5053333;28;20052;-87
2022/04/14 04:53:29;;;;;;;9.23;2.08;;;;;;;9.94;100.00;101406.69;5053732;28;20490;-87
2022/04/14 04:55:56;;;;;;;4.38;1.30;;;;;;;10.20;100.00;101410.44;5052579;28;20705;-87
2022/04/14 04:58:22;;;;;;;6.35;1.98;;;;;;;10.20;100.00;101402.59;5050724;28;20057;-88
2022/04/14 05:00:49;;;;;;;8.50;1.83;;;;;;;10.03;100.00;101410.84;5049010;28;20046;-88
2022/04/14 05:03:16;;;;;;;6.78;1.60;;;;;;;10.12;100.00;101413.25;5050762;28;20059;-86
2022/04/14 05:05:49;;;;;;;7.28;1.52;;;;;;;9.91;100.00;101378.00;5047215;28;20068;-88
2022/04/14 05:08:16;;;;;;;5.63;1.92;;;;;;;10.02;100.00;101417.84;5051826;28;20566;-88
2022/04/14 05:10:43;;;;;;;5.03;1.17;;;;;;;9.88;100.00;101370.25;5049581;28;20622;-86
2022/04/14 05:13:10;;;;;;;7.40;1.85;;;;;;;9.77;100.00;101391.41;5052430;28;20055;-86
2022/04/14 05:15:36;;;;;;;7.93;2.47;;;;;;;10.16;100.00;101438.41;5051187;28;20118;-86
2022/04/14 05:18:03;;;;;;;6.70;1.70;;;;;;;10.17;100.00;101429.69;5048897;28;20055;-86
2022/04/14 05:20:31;;;;;;;7.70;1.75;;;;;;;10.19;100.00;101421.81;5048537;28;20049;-86
2022/04/14 05:22:58;;;;;;;6.45;1.67;;;;;;;10.09;100.00;101418.53;5051679;28;20059;-86
2022/04/14 05:25:25;;;;;;;4.95;1.40;;;;;;;10.42;100.00;101427.34;5033336;28;20072;-86
2022/04/14 05:27:52;;;;;;;9.32;1.80;;;;;;;9.97;100.00;101380.47;5066400;28;20063;-87
2022/04/14 05:30:19;;;;;;;7.65;1.90;;;;;;;9.99;100.00;101402.22;5051052;28;20052;-87
2022/04/14 05:32:45;;;;;;;7.78;1.63;;;;;;;10.24;100.00;101425.16;5045609;28;20041;-86
2022/04/14 05:35:12;;;;;;;7.53;1.50;;;;;;;10.00;100.00;101419.63;5060889;28;20075;-86
2022/04/14 05:37:39;;;;;;;7.47;1.67;;;;;;;9.82;100.00;101412.22;5050722;28;20136;-86
2022/04/14 05:40:08;;;;;;;5.03;1.60;;;;;;;9.87;100.00;101426.06;5040904;28;20072;-86
2022/04/14 05:42:35;;;;;;;12.45;2.35;;;;;;;10.16;100.00;101427.09;5038333;28;20049;-87
2022/04/14 05:45:01;;;;;;;7.80;1.48;;;;;;;10.17;100.00;101413.13;5051193;28;20136;-86
2022/04/14 05:47:28;;;;;;;6.28;1.73;;;;;;;10.50;100.00;101436.75;5052904;28;20051;-86
2022/04/14 05:49:55;;;;;;;4.60;1.50;;;;;;;10.37;100.00;101421.34;5049822;28;20048;-87
2022/04/14 05:52:22;;;;;;;8.57;2.17;;;;;;;10.03;100.00;101440.47;5051921;28;20053;-86
2022/04/14 05:54:50;;;;;;;6.88;1.83;;;;;;;10.05;100.00;101440.44;5051160;28;20055;-86
2022/04/14 05:57:17;;;;;;;5.65;1.70;;;;;;;10.03;100.00;101414.31;5050716;28;20049;-86
2022/04/14 05:59:44;;;;;;;9.85;2.30;;;;;;;10.27;100.00;101425.94;5051266;28;20379;-86
2022/04/14 06:02:11;;;;;;;9.13;2.08;;;;;;;10.22;100.00;101435.66;5050804;28;20052;-87
2022/04/14 06:04:38;;;;;;;10.35;2.40;;;;;;;10.07;100.00;101433.41;5052209;28;20048;-86
2022/04/14 06:07:04;;;;;;;6.63;1.98;;;;;;;10.36;100.00;101440.59;5050843;28;20052;-85
2022/04/14 06:09:31;;;;;;;6.72;2.10;;;;;;;10.36;100.00;101439.75;5051806;28;20053;-85
2022/04/14 06:11:58;;;;;;;8.13;1.80;;;;;;;10.54;100.00;101475.06;5052015;28;20045;-84
2022/04/14 06:14:44;;;;;;;11.13;2.00;;;;;;;10.66;100.00;101468.63;5051091;28;20053;-85
2022/04/14 06:17:10;;;;;;;7.20;1.58;;;;;;;10.64;100.00;101471.28;5050829;28;20055;-85
2022/04/14 06:19:38;;;;;;;7.05;1.60;;;;;;;10.67;100.00;101460.72;5051956;28;20056;-85
2022/04/14 06:22:05;;;;;;;8.65;1.70;;;;;;;10.80;100.00;101479.59;5051434;28;20047;-84
2022/04/14 06:24:32;;;;;;;6.40;1.73;;;;;;;10.58;100.00;101474.06;5052061;28;20051;-85
2022/04/14 06:26:59;;;;;;;9.73;2.47;;;;;;;10.51;100.00;101470.75;5050092;28;20049;-85
2022/04/14 06:29:25;;;;;;;9.15;1.92;;;;;;;10.60;100.00;101485.38;5050613;28;20044;-85
2022/04/14 06:31:52;;;;;;;8.05;1.70;;;;;;;10.70;100.00;101491.25;5051405;28;20045;-85
2022/04/14 06:34:19;;;;;;;6.10;1.70;;;;;;;10.68;100.00;101493.00;5049019;28;21095;-87
2022/04/14 06:36:46;;;;;;;7.57;1.55;;;;;;;10.25;100.00;101479.22;5034678;28;20048;-87
2022/04/14 06:39:12;;;;;;;7.43;1.60;;;;;;;10.55;100.00;101472.41;5046548;28;20071;-85
2022/04/14 06:41:39;;;;;;;13.02;2.70;;;;;;;10.18;100.00;101486.38;5041337;28;20045;-85
2022/04/14 06:44:07;;;;;;;9.30;2.20;;;;;;;10.47;100.00;101495.28;5051355;28;20055;-85
2022/04/14 06:46:34;;;;;;;10.77;1.90;;;;;;;10.74;100.00;101493.72;5052110;28;20059;-86
2022/04/14 06:49:01;;;;;;;8.48;1.88;;;;;;;10.71;100.00;101506.03;5051192;28;20076;-86
2022/04/14 06:51:27;;;;;;;8.35;1.90;;;;;;;10.64;100.00;101494.84;5051145;28;20056;-86
2022/04/14 06:53:54;;;;;;;7.57;2.00;;;;;;;10.67;100.00;101491.31;5051701;28;20052;-86
2022/04/14 06:56:21;;;;;;;9.80;1.92;;;;;;;10.89;100.00;101502.06;5050565;28;20051;-86
2022/04/14 06:58:47;;;;;;;8.07;1.85;;;;;;;11.08;100.00;101500.66;5051010;28;20088;-87
2022/04/14 07:01:14;;;;;;;6.25;2.08;;;;;;;10.93;100.00;101506.34;5051664;28;20654;-86
2022/04/14 07:03:41;;;;;;;8.05;1.73;;;;;;;10.85;100.00;101503.91;5050258;28;20092;-86
2022/04/14 07:06:08;;;;;;;7.32;1.88;;;;;;;11.18;100.00;101514.41;5048432;28;20053;-88
2022/04/14 07:08:35;;;;;;;8.48;1.60;;;;;;;11.32;100.00;101512.25;5050933;28;20136;-87
2022/04/14 07:11:01;;;;;;;8.60;1.67;;;;;;;11.29;100.00;101514.09;5050604;28;20135;-87
2022/04/14 07:13:28;;;;;;;8.93;1.95;;;;;;;11.36;100.00;101518.25;5044138;28;20059;-88
2022/04/14 07:15:57;;;;;;;10.07;2.03;;;;;;;11.02;100.00;101527.06;5050503;28;20056;-87
2022/04/14 07:18:24;;;;;;;9.90;2.13;;;;;;;10.86;100.00;101516.13;5052617;28;20049;-88
2022/04/14 07:20:51;;;;;;;8.52;1.98;;;;;;;11.03;100.00;101536.66;5049841;28;20057;-88
2022/04/14 07:23:18;;;;;;;9.15;2.03;;;;;;;10.80;100.00;101516.25;5049190;28;20045;-88
2022/04/14 07:25:46;;;;;;;9.70;2.00;;;;;;;11.10;100.00;101521.59;5050167;28;20076;-89
2022/04/14 07:28:14;;;;;;;9.73;2.13;;;;;;;11.05;100.00;101494.66;5049574;28;20051;-90
2022/04/14 07:30:50;;;;;;;11.45;2.30;;;;;;;11.13;100.00;101540.72;5047459;28;20053;-89
2022/04/14 07:33:17;;;;;;;5.28;1.58;;;;;;;10.94;100.00;101513.28;5045802;28;20059;-89
2022/04/14 07:35:45;;;;;;;10.38;1.98;;;;;;;10.91;100.00;101523.88;5048172;28;20060;-89
2022/04/14 07:38:13;;;;;;;9.18;2.25;;;;;;;10.82;100.00;101538.91;5050329;28;20048;-91
2022/04/14 07:40:40;;;;;;;12.40;2.58;;;;;;;11.33;100.00;101534.06;5051071;28;20374;-88
2022/04/14 07:43:07;;;;;;;7.47;1.60;;;;;;;11.25;100.00;101513.31;5053205;28;20683;-89
2022/04/14 07:45:34;;;;;;;6.47;1.77;;;;;;;10.78;100.00;101525.94;5055888;28;20060;-89
2022/04/14 07:48:02;;;;;;;7.70;1.50;;;;;;;11.19;100.00;101521.34;5054480;28;20059;-89
2022/04/14 07:50:29;;;;;;;8.20;1.70;;;;;;;11.24;100.00;101500.25;5055409;28;20060;-90
2022/04/14 07:53:01;;;;;;;5.93;1.30;;;;;;;11.32;100.00;101474.69;5055609;28;20049;-89
2022/04/14 07:55:31;;;;;;;5.07;1.50;;;;;;;11.54;100.00;101540.47;5055604;28;20439;-89
2022/04/14 07:58:04;;;;;;;3.60;1.75;;;;;;;11.79;100.00;101532.72;5054474;28;20140;-89
2022/04/14 08:00:31;;;;;;;5.60;1.38;;;;;;;11.12;100.00;101511.94;5053713;28;20131;-89
2022/04/14 08:03:00;;;;;;;9.15;1.50;;;;;;;10.94;100.00;101508.06;5055183;28;20403;-89
2022/04/14 08:05:42;;;;;;;8.07;1.85;;;;;;;11.62;100.00;101535.03;5042313;28;20391;-89
2022/04/14 08:08:13;;;;;;;7.18;1.40;;;;;;;11.78;100.00;101544.16;5034695;28;20064;-89
2022/04/14 08:10:42;;;;;;;7.10;1.63;;;;;;;11.57;100.00;101506.28;5052313;28;20059;-89
2022/04/14 08:13:09;;;;;;;9.07;1.75;;;;;;;11.62;100.00;101509.63;5054541;28;20041;-89
2022/04/14 08:15:36;;;;;;;8.68;2.08;;;;;;;11.08;100.00;101516.41;5054610;28;20118;-89
2022/04/14 08:18:06;;;;;;;10.23;2.65;;;;;;;10.98;100.00;101499.22;5054373;28;20049;-88
2022/04/14 08:20:39;;;;;;;7.82;1.30;;;;;;;11.63;100.00;101497.38;5054010;28;20053;-88
2022/04/14 08:23:12;;;;;;;5.68;1.42;;;;;;;11.84;100.00;101524.72;5053876;28;20045;-88
2022/04/14 08:25:39;;;;;;;5.65;1.45;;;;;;;12.04;100.00;101506.66;5054126;28;20126;-89
2022/04/14 08:28:09;;;;;;;9.20;1.80;;;;;;;11.80;100.00;101492.47;5054295;28;20053;-89
2022/04/14 08:30:36;;;;;;;5.30;1.48;;;;;;;12.00;100.00;101488.41;5053724;28;20049;-89
2022/04/14 08:33:07;;;;;;;7.50;1.80;;;;;;;11.92;100.00;101518.38;5053858;28;20049;-89
2022/04/14 08:35:35;;;;;;;20.92;2.08;;;;;;;11.61;100.00;101510.53;5054180;28;20435;-89
2022/04/14 08:38:06;;;;;;;5.10;1.13;;;;;;;12.08;100.00;101549.41;5055023;28;20471;-89
2022/04/14 08:40:36;;;;;;;9.20;2.20;;;;;;;11.78;100.00;101558.13;5053844;28;20053;-89
2022/04/14 08:43:09;;;;;;;7.00;2.03;;;;;;;11.65;100.00;101522.69;5054771;28;20045;-89
2022/04/14 08:45:44;;;;;;;10.82;1.88;;;;;;;11.53;100.00;101537.00;5053934;28;20053;-89
2022/04/14 08:48:13;;;;;;;9.00;1.70;;;;;;;11.46;100.00;101530.22;5055357;28;20052;-89
2022/04/14 08:50:42;;;;;;;6.20;1.52;;;;;;;11.68;100.00;101517.31;5053280;28;20045;-90
2022/04/14 08:53:09;;;;;;;7.28;1.55;;;;;;;12.00;100.00;101552.25;5053426;28;20098;-90
2022/04/14 08:55:41;;;;;;;4.57;1.27;;;;;;;11.67;100.00;101535.72;5052751;28;20045;-89
2022/04/14 08:58:13;;;;;;;10.35;1.55;;;;;;;12.53;100.00;101538.34;5053877;28;20049;-90
2022/04/14 09:00:41;;;;;;;9.10;1.85;;;;;;;12.46;100.00;101566.56;5053070;28;20415;-90
2022/04/14 09:03:28;;;;;;;7.47;1.50;;;;;;;12.29;100.00;101525.09;5053368;28;20383;-90
2022/04/14 09:05:55;;;;;;;4.90;1.50;;;;;;;12.76;100.00;101566.47;5053212;28;20052;-90
2022/04/14 09:08:22;;;;;;;8.35;1.65;;;;;;;12.31;100.00;101520.66;5053239;28;20059;-89
2022/04/14 09:10:49;;;;;;;6.63;1.40;;;;;;;12.69;100.00;101578.09;5053925;28;20395;-90
2022/04/14 09:13:20;;;;;;;8.38;1.75;;;;;;;12.05;100.00;101512.75;5053037;28;20044;-90
2022/04/14 09:15:47;;;;;;;6.00;1.65;;;;;;;12.56;100.00;101575.03;5053227;28;20057;-89
2022/04/14 09:18:16;;;;;;;6.85;2.10;;;;;;;12.60;100.00;101541.63;5052913;28;20126;-89
2022/04/14 09:20:48;;;;;;;8.88;1.80;;;;;;;12.45;100.00;101558.75;5051860;28;20087;-88
2022/04/14 09:23:25;;;;;;;6.20;1.40;;;;;;;13.39;100.00;101571.38;5053920;28;20127;-87
2022/04/14 09:26:15;;;;;;;9.27;2.67;;;;;;;13.07;100.00;101555.78;5053174;28;20048;-89
2022/04/14 09:29:00;;;;;;;13.57;2.17;;;;;;;12.87;100.00;101576.63;5052089;28;20055;-88
2022/04/14 09:31:29;;;;;;;8.75;2.15;;;;;;;12.91;100.00;101571.22;5048818;28;20475;-87
2022/04/14 09:33:56;;;;;;;8.80;2.03;;;;;;;12.77;100.00;101567.34;5032119;28;20077;-87
2022/04/14 09:36:27;;;;;;;7.18;1.60;;;;;;;13.46;100.00;101559.72;5043609;28;20048;-87
2022/04/14 09:39:07;;;;;;;11.23;2.28;;;;;;;12.73;100.00;101571.84;5051188;28;20045;-87
2022/04/14 09:41:34;;;;;;;7.05;1.88;;;;;;;12.97;100.00;101577.19;5051600;28;20053;-88
2022/04/14 09:44:12;;;;;;;7.50;1.70;;;;;;;13.13;100.00;101583.63;5052290;28;20454;-88
2022/04/14 09:46:44;;;;;;;9.80;1.85;;;;;;;13.25;100.00;101579.72;5052036;28;20486;-89
2022/04/14 09:49:17;;;;;;;9.45;2.70;;;;;;;13.51;100.00;101588.47;5052231;28;20049;-90
2022/04/14 09:51:46;;;;;;;8.37;2.13;;;;;;;13.26;100.00;101584.03;5052480;28;20092;-88
2022/04/14 09:54:17;;;;;;;15.63;2.20;;;;;;;13.37;100.00;101589.84;5052563;28;20056;-89
2022/04/14 09:56:51;;;;;;;9.43;2.67;;;;;;;13.41;100.00;101594.06;5051614;28;20474;-87
2022/04/14 09:59:23;;;;;;;12.15;1.95;;;;;;;13.37;100.00;101589.84;5050949;28;20049;-87
2022/04/14 10:02:12;;;;;;;9.20;1.73;;;;;;;13.46;98.29;101602.66;5048727;28;20072;-86
2022/04/14 10:04:42;;;;;;;10.55;2.13;;;;;;;12.46;100.00;101602.47;5032148;28;20694;-87
2022/04/14 10:07:11;;;;;;;11.52;1.88;;;;;;;13.03;100.00;101608.50;5032846;28;20463;-87
2022/04/14 10:09:40;;;;;;;9.45;2.17;;;;;;;12.80;100.00;101575.09;5038712;28;20045;-87
2022/04/14 10:12:16;;;;;;;11.55;2.15;;;;;;;13.45;100.00;101608.81;5051760;28;20136;-88
2022/04/14 10:15:01;;;;;;;11.77;2.35;;;;;;;12.86;100.00;101580.19;5053101;28;20049;-87
2022/04/14 10:17:30;;;;;;;14.13;2.38;;;;;;;13.24;99.97;101620.06;5053008;28;20395;-87
2022/04/14 10:19:57;;;;;;;8.15;1.80;;;;;;;12.87;100.00;101569.63;5051072;28;20055;-87
2022/04/14 10:22:26;;;;;;;8.98;2.13;;;;;;;12.93;100.00;101620.25;5052517;28;20051;-87
2022/04/14 10:24:56;;;;;;;8.85;2.20;;;;;;;13.24;99.14;101570.09;5051220;28;20418;-87
2022/04/14 10:27:25;;;;;;;9.15;1.70;;;;;;;12.81;100.00;101582.09;5051468;28;20512;-87
2022/04/14 10:29:52;;;;;;;9.68;2.05;;;;;;;12.60;98.67;101544.25;5041536;28;20045;-87
2022/04/14 10:32:19;;;;;;;10.65;2.30;;;;;;;12.70;100.00;101595.59;5052777;28;20143;-87
2022/04/14 10:34:46;;;;;;;6.45;1.40;;;;;;;12.90;100.00;101587.03;5052309;28;20486;-88
2022/04/14 10:37:20;;;;;;;8.75;2.33;;;;;;;12.49;100.00;101595.38;5051058;28;20049;-90
2022/04/14 10:39:49;;;;;;;7.90;1.60;;;;;;;13.01;100.00;101618.22;5051098;28;20059;-88
2022/04/14 10:42:20;;;;;;;7.05;1.42;;;;;;;13.25;97.95;101612.13;5050785;28;20051;-88
2022/04/14 10:44:49;;;;;;;7.57;1.50;;;;;;;13.22;99.76;101612.22;5051585;28;20506;-89
2022/04/14 10:47:42;;;;;;;8.23;1.90;;;;;;;13.57;96.20;101611.94;5051629;28;20501;-89
2022/04/14 10:50:38;;;;;;;8.17;1.80;;;;;;;13.48;93.97;101615.75;5042308;28;20059;-88
2022/04/14 10:53:20;;;;;;;6.10;1.60;;;;;;;13.21;93.92;101615.78;5046460;28;20045;-89
2022/04/14 10:55:50;;;;;;;5.57;1.85;;;;;;;13.34;94.28;101618.00;5044377;28;20052;-88
2022/04/14 10:58:26;;;;;;;6.97;1.75;;;;;;;13.30;92.42;101628.59;5051023;28;20067;-89
2022/04/14 11:00:54;;;;;;;12.90;2.45;;;;;;;12.63;94.21;101596.69;5051306;28;20525;-89
2022/04/14 11:03:44;;;;;;;7.10;1.48;;;;;;;12.49;100.00;101634.75;5050392;28;20051;-89
2022/04/14 11:06:39;;;;;;;11.50;2.70;;;;;;;12.35;100.00;101613.31;5030222;28;20124;-88
2022/04/14 11:09:42;;;;;;;9.05;1.98;;;;;;;12.66;100.00;101626.38;5051284;28;20905;-89
2022/04/14 11:12:22;;;;;;;7.93;1.75;;;;;;;12.74;100.00;101626.09;5050341;28;20053;-89
2022/04/14 11:14:56;;;;;;;6.70;1.48;;;;;;;12.62;100.00;101614.22;5052158;28;20053;-89
2022/04/14 11:17:40;;;;;;;11.10;1.65;;;;;;;12.99;100.00;101638.44;5051969;28;20446;-90
2022/04/14 11:20:36;;;;;;;7.03;2.08;;;;;;;12.63;100.00;101629.09;5055066;28;20057;-89
2022/04/14 11:23:07;;;;;;;7.80;2.03;;;;;;;12.50;100.00;101617.22;5055127;28;20406;-89
2022/04/14 11:25:41;;;;;;;7.53;1.85;;;;;;;12.78;98.85;101630.34;5055143;28;20055;-88
2022/04/14 11:28:26;;;;;;;2.33;1.13;;;;;;;12.87;97.47;101629.19;5056316;28;20517;-88